createdAt,value
2019-05-16T00:00:29.045Z,7.90
2019-05-16T00:06:31.217Z,7.90
2019-05-16T00:12:33.426Z,7.90
2019-05-16T00:18:38.822Z,7.80
2019-05-16T00:24:41.300Z,7.80
2019-05-16T00:30:44.699Z,7.90
2019-05-16T00:36:48.661Z,7.90
2019-05-16T00:42:50.810Z,7.90
2019-05-16T00:48:53.222Z,7.80
2019-05-16T00:54:57.964Z,7.80
2019-05-16T01:01:00.275Z,7.70
2019-05-16T01:07:02.450Z,7.70
2019-05-16T01:13:04.790Z,7.80
2019-05-16T01:19:09.145Z,7.70
2019-05-16T01:25:11.508Z,7.70
2019-05-16T01:31:13.756Z,7.70
2019-05-16T01:37:16.079Z,7.70
2019-05-16T01:43:18.549Z,7.80
2019-05-16T01:49:20.878Z,7.80
2019-05-16T01:55:25.115Z,7.80
2019-05-16T02:01:28.837Z,7.80
2019-05-16T02:07:31.157Z,7.70
2019-05-16T02:13:33.611Z,7.70
2019-05-16T02:19:35.888Z,7.70
2019-05-16T02:25:40.822Z,7.70
2019-05-16T02:31:42.453Z,7.60
2019-05-16T02:37:46.697Z,7.70
2019-05-16T02:43:50.803Z,7.70
2019-05-16T02:49:54.004Z,7.60
2019-05-16T02:55:56.171Z,7.60
2019-05-16T03:02:00.928Z,7.60
2019-05-16T03:08:03.724Z,7.60
2019-05-16T03:14:05.968Z,7.60
2019-05-16T03:20:10.860Z,7.60
2019-05-16T03:26:13.704Z,7.50
2019-05-16T03:32:15.853Z,7.50
2019-05-16T03:38:20.950Z,7.50
2019-05-16T03:44:22.239Z,7.50
2019-05-16T03:50:25.663Z,7.60
2019-05-16T03:56:30.622Z,7.70
2019-05-16T04:02:31.934Z,7.70
2019-05-16T04:08:34.122Z,7.60
2019-05-16T04:14:40.609Z,7.60
2019-05-16T04:20:41.468Z,7.70
2019-05-16T04:26:51.616Z,7.60
2019-05-16T04:32:53.649Z,7.60
2019-05-16T04:38:55.807Z,7.70
2019-05-16T04:45:01.002Z,7.70
2019-05-16T04:51:02.345Z,7.80
2019-05-16T04:57:04.680Z,8.00
2019-05-16T05:03:15.892Z,8.00
2019-05-16T05:09:20.729Z,7.90
2019-05-16T05:15:22.587Z,8.00
2019-05-16T05:21:25.025Z,8.00
2019-05-16T05:27:27.299Z,8.00
2019-05-16T05:33:30.395Z,8.20
2019-05-16T05:39:32.709Z,8.30
2019-05-16T05:45:35.007Z,8.40
2019-05-16T05:51:37.459Z,8.40
2019-05-16T05:57:40.528Z,8.40
2019-05-16T06:03:42.867Z,8.70
2019-05-16T06:09:53.612Z,8.90
2019-05-16T06:15:50.932Z,9.10
2019-05-16T06:21:53.544Z,9.10
2019-05-16T06:27:56.045Z,9.20
2019-05-16T06:34:06.841Z,9.30
2019-05-16T06:40:02.782Z,9.50
2019-05-16T06:46:05.396Z,9.70
2019-05-16T06:52:10.439Z,9.80
2019-05-16T06:58:13.899Z,9.70
2019-05-16T07:04:16.078Z,9.80
2019-05-16T07:10:20.345Z,9.80
2019-05-16T07:16:22.475Z,9.70
2019-05-16T07:22:25.130Z,9.80
2019-05-16T07:28:29.874Z,10.20
2019-05-16T07:34:31.369Z,10.70
2019-05-16T07:40:33.489Z,11.20
2019-05-16T07:46:35.821Z,11.80
2019-05-16T07:52:40.240Z,12.40
2019-05-16T07:58:42.482Z,13.30
2019-05-16T08:04:44.715Z,13.90
2019-05-16T08:10:47.024Z,14.10
2019-05-16T08:16:50.168Z,13.80
2019-05-16T08:22:52.485Z,14.00
2019-05-16T08:28:55.156Z,14.00
2019-05-16T08:35:00.827Z,13.70
2019-05-16T08:41:11.520Z,13.50
2019-05-16T08:47:06.500Z,13.70
2019-05-16T08:53:12.877Z,13.60
2019-05-16T08:59:13.654Z,14.20
2019-05-16T09:05:16.059Z,14.50
2019-05-16T09:11:31.455Z,14.70
2019-05-16T09:17:41.819Z,14.90
2019-05-16T09:23:46.712Z,14.60
2019-05-16T09:29:48.180Z,14.30
2019-05-16T09:35:50.366Z,13.80
2019-05-16T09:41:55.559Z,13.40
2019-05-16T09:47:57.488Z,13.40
2019-05-16T09:54:00.025Z,13.40
2019-05-16T10:00:02.649Z,13.60
2019-05-16T10:06:07.715Z,13.90
2019-05-16T10:12:15.233Z,13.90
2019-05-16T10:18:13.560Z,14.10
2019-05-16T10:24:16.092Z,14.30
2019-05-16T10:30:18.451Z,15.00
2019-05-16T10:36:21.555Z,15.50
2019-05-16T10:42:28.764Z,16.00
2019-05-16T10:48:28.463Z,16.30
2019-05-16T10:54:30.887Z,16.90
2019-05-16T11:00:57.573Z,17.50
2019-05-16T11:06:37.656Z,17.30
2019-05-16T11:12:50.341Z,16.90
2019-05-16T11:18:44.563Z,16.90
2019-05-16T11:24:47.223Z,16.30
2019-05-16T11:30:49.940Z,17.10
2019-05-16T11:36:52.280Z,17.60
2019-05-16T11:43:18.249Z,18.00
2019-05-16T11:49:19.409Z,17.90
2019-05-16T11:55:22.713Z,17.60
2019-05-16T12:01:27.538Z,17.00
2019-05-16T12:07:33.895Z,16.70
2019-05-16T12:13:33.677Z,16.40
2019-05-16T12:19:43.416Z,16.00
2019-05-16T12:25:40.284Z,15.60
2019-05-16T12:31:55.273Z,15.10
2019-05-16T12:37:48.122Z,15.00
2019-05-16T12:43:53.394Z,14.80
2019-05-16T12:49:56.627Z,14.90
2019-05-16T12:55:59.088Z,15.10
2019-05-16T13:02:02.613Z,14.60
2019-05-16T13:08:04.954Z,14.50
2019-05-16T13:14:11.056Z,14.90
2019-05-16T13:20:12.312Z,15.20
2019-05-16T13:26:14.673Z,15.00
2019-05-16T13:32:17.644Z,14.40
2019-05-16T13:38:20.283Z,14.80
2019-05-16T13:44:23.225Z,15.00
2019-05-16T13:50:27.313Z,15.10
2019-05-16T13:56:29.791Z,15.40
2019-05-16T14:02:32.215Z,16.00
2019-05-16T14:08:37.372Z,15.90
2019-05-16T14:14:42.448Z,15.70
2019-05-16T14:20:46.461Z,15.30
2019-05-16T14:26:48.135Z,15.20
2019-05-16T14:32:50.994Z,15.40
2019-05-16T14:38:53.529Z,15.50
2019-05-16T14:45:06.527Z,15.80
2019-05-16T14:50:59.991Z,15.60
2019-05-16T14:57:06.513Z,15.90
2019-05-16T15:03:09.870Z,15.30
2019-05-16T15:09:12.266Z,15.40
2019-05-16T15:15:21.078Z,15.20
2019-05-16T15:21:19.576Z,15.40
2019-05-16T15:27:23.195Z,15.90
2019-05-16T15:33:27.356Z,16.10
2019-05-16T15:39:30.996Z,16.10
2019-05-16T15:45:43.066Z,16.40
2019-05-16T15:51:43.523Z,16.20
2019-05-16T15:57:47.547Z,16.30
2019-05-16T16:03:49.841Z,15.80
2019-05-16T16:09:52.101Z,15.20
2019-05-16T16:15:54.754Z,15.30
2019-05-16T16:22:00.111Z,15.30
2019-05-16T16:28:02.651Z,15.30
2019-05-16T16:34:12.910Z,15.00
2019-05-16T16:40:17.583Z,15.00
2019-05-16T16:46:19.746Z,15.10
2019-05-16T16:52:22.019Z,14.70
2019-05-16T16:58:26.422Z,14.50
2019-05-16T17:04:28.486Z,14.50
2019-05-16T17:10:30.857Z,14.60
2019-05-16T17:16:33.348Z,14.70
2019-05-16T17:22:37.370Z,14.70
2019-05-16T17:28:53.751Z,14.50
2019-05-16T17:34:56.127Z,14.50
2019-05-16T17:40:58.346Z,14.40
2019-05-16T17:47:00.554Z,14.10
2019-05-16T17:53:02.777Z,13.90
2019-05-16T17:59:07.104Z,13.80
2019-05-16T18:05:21.157Z,14.00
2019-05-16T18:11:23.480Z,14.00
2019-05-16T18:17:26.957Z,13.90
2019-05-16T18:23:29.334Z,13.80
2019-05-16T18:29:31.774Z,13.70
2019-05-16T18:35:36.716Z,13.50
2019-05-16T18:41:38.665Z,13.50
2019-05-16T18:47:41.954Z,13.40
2019-05-16T18:53:46.382Z,13.20
2019-05-16T18:59:48.416Z,13.20
2019-05-16T19:05:50.720Z,13.10
2019-05-16T19:11:53.048Z,13.00
2019-05-16T19:17:58.503Z,12.90
2019-05-16T19:23:59.455Z,12.80
2019-05-16T19:30:02.477Z,12.70
2019-05-16T19:36:07.096Z,12.70
2019-05-16T19:42:08.972Z,12.70
2019-05-16T19:48:13.988Z,12.60
2019-05-16T19:54:16.474Z,12.50
2019-05-16T20:00:19.381Z,12.50
2019-05-16T20:06:22.927Z,12.60
2019-05-16T20:12:26.310Z,12.60
2019-05-16T20:18:28.720Z,12.50
2019-05-16T20:24:31.063Z,12.50
2019-05-16T20:30:36.901Z,12.60
2019-05-16T20:36:39.001Z,12.50
2019-05-16T20:42:43.815Z,12.40
2019-05-16T20:48:46.376Z,12.30
2019-05-16T20:54:49.841Z,12.20
2019-05-16T21:00:52.255Z,12.20
2019-05-16T21:07:03.782Z,12.20
2019-05-16T21:12:58.901Z,12.10
2019-05-16T21:19:01.641Z,12.10
2019-05-16T21:25:03.888Z,12.10
2019-05-16T21:31:09.247Z,12.00
2019-05-16T21:37:17.135Z,11.90
2019-05-16T21:43:16.945Z,11.70
2019-05-16T21:49:19.765Z,11.60
2019-05-16T21:55:21.867Z,11.60
2019-05-16T22:01:26.605Z,11.50
2019-05-16T22:07:33.585Z,11.60
2019-05-16T22:13:36.596Z,11.50
2019-05-16T22:19:38.507Z,11.50
2019-05-16T22:25:40.671Z,11.50
2019-05-16T22:31:47.044Z,11.50
2019-05-16T22:37:55.575Z,11.50
2019-05-16T22:43:54.736Z,11.40
2019-05-16T22:49:57.013Z,11.40
2019-05-16T22:55:59.276Z,11.40
2019-05-16T23:02:01.433Z,11.30
2019-05-16T23:08:07.276Z,11.30
2019-05-16T23:14:07.788Z,11.20
2019-05-16T23:20:10.518Z,11.20
2019-05-16T23:26:12.672Z,11.20
2019-05-16T23:32:17.053Z,11.20
2019-05-16T23:38:20.226Z,11.10
2019-05-16T23:44:22.501Z,11.10
2019-05-16T23:50:27.359Z,11.00
2019-05-16T23:56:28.962Z,11.10
